To NAV CANADA Home Page Login to a new session Search on AWWS site Feedback and Comments Disclaimer Vers la page française équivalente Tips FAQ What's new on the site To the Forecasts and Observations / NOTAM section To "File a Flight Plan" website Publications and other links Update of the User's profile FIC Telephone Numbers My Weather Data Folder Route Weather Data Regional Weather Data Local Weather Data To the Forecasts and Observations / NOTAM section
Request Generated 05/25/2017 at 01:07:27 UTC . Weather information available at that time is displayed.

METAR/TAF

FORT CHIPEWYAN/AB    (show WxCam)

METAR CYPY 250100Z AUTO 02014KT 340V040 9SM CLR 19/M01 A2959 RMK
SLP027 DENSITY ALT 1700FT=
METAR CYPY 250000Z AUTO 03013G21KT 9SM CLR 19/M01 A2958 RMK SLP024
DENSITY ALT 1800FT=
METAR CYPY 242300Z AUTO 04012G21KT 9SM CLR 19/00 A2956 RMK SLP018
DENSITY ALT 1800FT=

TAF CYPY 242338Z 2500/2506 02012G22KT P6SM FEW040
BECMG 2502/2504 01007KT
RMK FCST BASED ON AUTO OBS. NXT FCST WILL BE ISSUED AT 251145Z=
Your time UTC time
Weather data provided by Environment Canada and NAV CANADA